Time;durP1;ratioP1;P1;durP2;ratioP2;P2;SDS_P1;SDS_P2;PMS_P1;PMS_P2;Temp;Humidity;BMP_temperature;BMP_pressure;BME280_temperature;BME280_humidity;BME280_pressure;Samples;Min_cycle;Max_cycle;Signal;HPM_P1;HPM_P2
2021/01/28 00:01:43;;;;;;;138.80;43.95;;;;;;;;;;8161188;28;20366;-72
2021/01/28 00:05:47;;;;;;;148.93;44.67;;;;;;;;;;8144902;28;20470;-72
2021/01/28 00:09:50;;;;;;;131.73;42.45;;;;;;;;;;8162740;28;20462;-72
2021/01/28 00:13:53;;;;;;;122.28;38.22;;;;;;;;;;8160294;28;20077;-72
2021/01/28 00:17:58;;;;;;;117.10;37.15;;;;;;;;;;8161690;28;20473;-72
2021/01/28 00:22:02;;;;;;;111.93;38.90;;;;;;;;;;8160920;28;20465;-72
2021/01/28 00:26:05;;;;;;;124.60;39.83;;;;;;;;;;8160127;28;20424;-71
2021/01/28 00:30:17;;;;;;;125.55;41.05;;;;;;;;;;8161774;28;20047;-72
2021/01/28 00:34:21;;;;;;;123.00;39.70;;;;;;;;;;8137398;28;20054;-72
2021/01/28 00:38:31;;;;;;;137.90;42.65;;;;;;;;;;8159724;28;20487;-72
2021/01/28 00:42:34;;;;;;;145.98;47.35;;;;;;;;;;8161904;28;20050;-71
2021/01/28 00:46:38;;;;;;;105.90;39.75;;;;;;;;;;8159982;28;20477;-72
2021/01/28 00:50:42;;;;;;;105.88;35.30;;;;;;;;;;8161022;28;20454;-71
2021/01/28 00:54:46;;;;;;;115.53;37.72;;;;;;;;;;8160002;28;20366;-71
2021/01/28 00:58:54;;;;;;;88.07;30.73;;;;;;;;;;8159010;28;20392;-71
2021/01/28 01:03:02;;;;;;;113.60;34.15;;;;;;;;;;8158657;28;20055;-71
2021/01/28 01:07:06;;;;;;;94.30;31.90;;;;;;;;;;8160809;28;20397;-71
2021/01/28 01:11:12;;;;;;;104.88;33.85;;;;;;;;;;8160871;28;20476;-71
2021/01/28 01:15:19;;;;;;;110.10;35.80;;;;;;;;;;8144038;28;20485;-72
2021/01/28 01:19:22;;;;;;;105.55;32.50;;;;;;;;;;8142724;28;20058;-73
2021/01/28 01:23:45;;;;;;;97.45;31.95;;;;;;;;;;8160556;28;20084;-71
2021/01/28 01:27:53;;;;;;;96.22;31.60;;;;;;;;;;8143857;28;20042;-71
2021/01/28 01:32:29;;;;;;;151.90;44.72;;;;;;;;;;8158683;28;20393;-71
2021/01/28 01:36:50;;;;;;;99.72;31.73;;;;;;;;;;8159966;28;20492;-72
2021/01/28 01:40:58;;;;;;;176.80;51.38;;;;;;;;;;8159620;28;20400;-71
2021/01/28 01:45:07;;;;;;;110.00;34.85;;;;;;;;;;8143607;28;20465;-72
2021/01/28 01:49:17;;;;;;;99.20;28.65;;;;;;;;;;8158211;28;20393;-71
2021/01/28 01:53:31;;;;;;;103.30;32.72;;;;;;;;;;8142709;28;20511;-71
2021/01/28 01:57:37;;;;;;;110.75;33.15;;;;;;;;;;8159625;28;20389;-72
2021/01/28 02:02:02;;;;;;;98.85;33.60;;;;;;;;;;8157574;28;20073;-71
2021/01/28 02:06:43;;;;;;;97.88;30.35;;;;;;;;;;8158451;28;20469;-71
2021/01/28 02:11:19;;;;;;;90.70;29.60;;;;;;;;;;8136366;28;20508;-71
2021/01/28 02:15:39;;;;;;;98.25;33.85;;;;;;;;;;8158480;28;20396;-71
2021/01/28 02:19:52;;;;;;;107.28;32.17;;;;;;;;;;8148674;28;20396;-71
2021/01/28 02:24:17;;;;;;;114.07;34.03;;;;;;;;;;8163415;28;20491;-71
2021/01/28 02:28:22;;;;;;;139.75;39.10;;;;;;;;;;8163730;28;20481;-71
2021/01/28 02:32:27;;;;;;;131.38;38.22;;;;;;;;;;8148223;28;20503;-70
2021/01/28 02:36:53;;;;;;;100.47;31.17;;;;;;;;;;8165028;28;20465;-71
2021/01/28 02:41:15;;;;;;;173.30;43.95;;;;;;;;;;8164384;28;20462;-71
2021/01/28 02:45:39;;;;;;;142.13;42.08;;;;;;;;;;8165133;28;20421;-71
2021/01/28 02:49:55;;;;;;;133.07;37.65;;;;;;;;;;8164048;28;20373;-70
2021/01/28 02:53:59;;;;;;;115.85;31.80;;;;;;;;;;8162948;28;20495;-70
2021/01/28 02:58:04;;;;;;;84.40;28.17;;;;;;;;;;8163366;28;20382;-70
2021/01/28 03:02:19;;;;;;;99.10;29.90;;;;;;;;;;8163570;28;20073;-70
2021/01/28 03:06:25;;;;;;;88.57;28.20;;;;;;;;;;8147306;28;20405;-70
2021/01/28 03:10:31;;;;;;;81.60;25.23;;;;;;;;;;8163261;28;20051;-70
2021/01/28 03:14:54;;;;;;;87.30;26.50;;;;;;;;;;8162360;28;20072;-70
2021/01/28 03:18:57;;;;;;;84.85;26.48;;;;;;;;;;8161821;28;20465;-71
2021/01/28 03:23:01;;;;;;;82.72;27.58;;;;;;;;;;8163633;28;20054;-70
2021/01/28 03:27:11;;;;;;;80.95;27.52;;;;;;;;;;8147015;28;20474;-70
2021/01/28 03:31:16;;;;;;;82.60;30.20;;;;;;;;;;8162127;28;20396;-70
2021/01/28 03:35:21;;;;;;;80.53;28.10;;;;;;;;;;8146047;28;20481;-70
2021/01/28 03:39:26;;;;;;;78.55;27.23;;;;;;;;;;8161592;28;20413;-70
2021/01/28 03:43:30;;;;;;;96.63;28.02;;;;;;;;;;8161682;28;20373;-70
2021/01/28 03:47:35;;;;;;;94.50;32.90;;;;;;;;;;8145822;28;20469;-70
2021/01/28 03:52:04;;;;;;;95.82;32.83;;;;;;;;;;8154929;28;20046;-70
2021/01/28 03:56:25;;;;;;;98.70;31.27;;;;;;;;;;8161411;28;20050;-70
2021/01/28 04:00:35;;;;;;;73.90;26.98;;;;;;;;;;8163386;28;20050;-70
2021/01/28 04:04:50;;;;;;;105.93;30.63;;;;;;;;;;8147024;28;20461;-70
2021/01/28 04:09:17;;;;;;;85.28;28.40;;;;;;;;;;8170221;28;20054;-71
2021/01/28 04:13:36;;;;;;;87.50;29.17;;;;;;;;;;8147555;28;20473;-70
2021/01/28 04:17:40;;;;;;;89.85;29.10;;;;;;;;;;8162545;28;20458;-70
2021/01/28 04:21:59;;;;;;;101.75;31.05;;;;;;;;;;8131120;28;20050;-70
2021/01/28 04:26:12;;;;;;;70.03;26.40;;;;;;;;;;8160657;28;20369;-70
2021/01/28 04:30:32;;;;;;;83.05;31.00;;;;;;;;;;8170044;28;20483;-70
2021/01/28 04:34:38;;;;;;;78.32;28.10;;;;;;;;;;8177062;28;20507;-70
2021/01/28 04:38:53;;;;;;;89.28;26.35;;;;;;;;;;8161321;28;20384;-70
2021/01/28 04:43:03;;;;;;;93.55;31.23;;;;;;;;;;8167635;28;20465;-70
2021/01/28 04:47:13;;;;;;;113.93;32.80;;;;;;;;;;8145293;28;20503;-70
2021/01/28 04:51:16;;;;;;;90.93;30.50;;;;;;;;;;8166447;28;20358;-70
2021/01/28 04:55:45;;;;;;;84.55;31.08;;;;;;;;;;8174990;28;20060;-69
2021/01/28 04:59:54;;;;;;;80.70;31.35;;;;;;;;;;8189092;28;20069;-70
2021/01/28 05:04:07;;;;;;;84.80;30.83;;;;;;;;;;8187906;28;20380;-69
2021/01/28 05:08:37;;;;;;;90.35;30.25;;;;;;;;;;8186883;28;20365;-70
2021/01/28 05:13:05;;;;;;;94.35;29.08;;;;;;;;;;8190628;28;20053;-69
2021/01/28 05:17:31;;;;;;;99.82;31.60;;;;;;;;;;8190743;28;20373;-69
2021/01/28 05:22:25;;;;;;;85.30;31.08;;;;;;;;;;8187160;28;20461;-71
2021/01/28 05:26:43;;;;;;;99.07;31.38;;;;;;;;;;8184931;28;20487;-69
2021/01/28 05:30:46;;;;;;;91.57;31.27;;;;;;;;;;8186146;28;20661;-70
2021/01/28 05:34:49;;;;;;;90.55;31.52;;;;;;;;;;8186869;28;20060;-70
2021/01/28 05:39:22;;;;;;;161.13;47.80;;;;;;;;;;8170962;28;20054;-70
2021/01/28 05:43:29;;;;;;;198.95;59.20;;;;;;;;;;8189317;28;20376;-70
2021/01/28 05:47:40;;;;;;;166.10;53.05;;;;;;;;;;8189950;28;20469;-70
2021/01/28 05:52:31;;;;;;;156.65;48.10;;;;;;;;;;8190614;28;20384;-69
2021/01/28 05:57:07;;;;;;;197.18;59.13;;;;;;;;;;8153742;28;20046;-69
2021/01/28 06:01:26;;;;;;;185.20;63.45;;;;;;;;;;8140456;28;20363;-70
2021/01/28 06:06:05;;;;;;;191.90;62.60;;;;;;;;;;8138992;28;20504;-70
2021/01/28 06:10:42;;;;;;;188.27;66.70;;;;;;;;;;8127442;28;20477;-70
2021/01/28 06:15:41;;;;;;;161.73;63.75;;;;;;;;;;8155074;28;20523;-70
2021/01/28 06:20:29;;;;;;;206.23;72.75;;;;;;;;;;8140421;28;20058;-71
2021/01/28 06:25:04;;;;;;;260.35;88.78;;;;;;;;;;8140203;28;20050;-69
2021/01/28 06:30:07;;;;;;;217.70;75.32;;;;;;;;;;8125603;28;20361;-69
2021/01/28 06:34:49;;;;;;;178.10;60.17;;;;;;;;;;8138862;28;20401;-70
2021/01/28 06:39:28;;;;;;;224.30;67.43;;;;;;;;;;8189163;28;20488;-70
2021/01/28 06:44:06;;;;;;;212.57;67.15;;;;;;;;;;8171099;28;20453;-70
2021/01/28 06:48:34;;;;;;;270.35;80.18;;;;;;;;;;8192350;28;20072;-70
2021/01/28 06:53:06;;;;;;;233.10;65.03;;;;;;;;;;8175818;28;20484;-70
2021/01/28 06:57:49;;;;;;;143.63;46.63;;;;;;;;;;8189401;28;20374;-70
2021/01/28 07:02:29;;;;;;;148.65;44.85;;;;;;;;;;8190104;28;20372;-70
2021/01/28 07:07:12;;;;;;;146.00;45.28;;;;;;;;;;8193795;28;20514;-71
2021/01/28 07:11:44;;;;;;;145.68;42.95;;;;;;;;;;8175300;28;20381;-70
2021/01/28 07:16:21;;;;;;;122.25;42.40;;;;;;;;;;8193515;28;20057;-71
2021/01/28 07:20:56;;;;;;;112.50;41.83;;;;;;;;;;8163811;28;20384;-71
2021/01/28 07:25:21;;;;;;;129.95;42.40;;;;;;;;;;8180153;28;20477;-70
2021/01/28 07:29:40;;;;;;;107.80;39.45;;;;;;;;;;8163286;28;20408;-70
2021/01/28 07:33:59;;;;;;;132.75;45.50;;;;;;;;;;8146770;28;20485;-71
2021/01/28 07:38:28;;;;;;;110.70;42.88;;;;;;;;;;8209598;28;20064;-70
2021/01/28 07:43:03;;;;;;;120.55;44.40;;;;;;;;;;8195680;28;20375;-70
2021/01/28 07:47:35;;;;;;;132.27;45.95;;;;;;;;;;8195596;28;20476;-70
2021/01/28 07:51:59;;;;;;;121.28;44.03;;;;;;;;;;8193652;28;20358;-70
2021/01/28 07:56:04;;;;;;;124.80;43.92;;;;;;;;;;8194501;28;20480;-70
2021/01/28 08:00:18;;;;;;;166.35;48.97;;;;;;;;;;8193219;28;20485;-70
2021/01/28 08:04:36;;;;;;;162.88;48.65;;;;;;;;;;8195009;28;20477;-70
2021/01/28 08:08:39;;;;;;;183.32;53.95;;;;;;;;;;8177915;28;20073;-70
2021/01/28 08:13:03;;;;;;;191.68;63.95;;;;;;;;;;8194943;28;20176;-70
2021/01/28 08:17:15;;;;;;;151.63;53.28;;;;;;;;;;8192981;28;20389;-70
2021/01/28 08:21:23;;;;;;;172.52;61.95;;;;;;;;;;8194617;28;20483;-72
2021/01/28 08:25:31;;;;;;;126.32;49.78;;;;;;;;;;8194553;28;20376;-70
2021/01/28 08:29:35;;;;;;;;;;;;;;;;;;8194238;28;20477;-68
2021/01/28 08:33:42;;;;;;;120.05;48.20;;;;;;;;;;8193974;28;19947;-68
2021/01/28 08:37:47;;;;;;;154.85;51.67;;;;;;;;;;8194049;28;20382;-68
2021/01/28 08:42:18;;;;;;;117.57;45.97;;;;;;;;;;8193445;28;20076;-70
2021/01/28 08:46:21;;;;;;;118.60;42.25;;;;;;;;;;8192327;28;20461;-69
2021/01/28 08:50:27;;;;;;;91.10;33.47;;;;;;;;;;8191806;28;20461;-69
2021/01/28 08:54:35;;;;;;;128.20;40.75;;;;;;;;;;8193370;28;20491;-69
2021/01/28 08:58:41;;;;;;;150.93;45.53;;;;;;;;;;8191443;28;20388;-69
2021/01/28 09:02:50;;;;;;;152.50;49.85;;;;;;;;;;8191975;28;20408;-69
2021/01/28 09:06:54;;;;;;;126.43;40.83;;;;;;;;;;8176493;28;20482;-69
2021/01/28 09:11:22;;;;;;;133.15;49.08;;;;;;;;;;8191888;28;20072;-69
2021/01/28 09:15:31;;;;;;;104.72;37.95;;;;;;;;;;8192480;28;20577;-69
2021/01/28 09:19:39;;;;;;;153.45;46.33;;;;;;;;;;8191535;28;20228;-69
2021/01/28 09:24:03;;;;;;;64.03;25.52;;;;;;;;;;8193173;28;20049;-69
2021/01/28 09:28:14;;;;;;;78.68;30.77;;;;;;;;;;8192905;28;20484;-68
2021/01/28 09:32:17;;;;;;;68.30;26.80;;;;;;;;;;8175220;28;20408;-69
2021/01/28 09:36:30;;;;;;;54.45;20.98;;;;;;;;;;8191840;28;20503;-69
2021/01/28 09:40:39;;;;;;;46.95;19.35;;;;;;;;;;8190356;28;20397;-69
2021/01/28 09:44:49;;;;;;;53.38;19.33;;;;;;;;;;8191552;28;20477;-69
2021/01/28 09:48:56;;;;;;;78.15;25.13;;;;;;;;;;8190540;28;20376;-69
2021/01/28 09:52:59;;;;;;;58.58;19.10;;;;;;;;;;8192545;28;20061;-69
2021/01/28 09:57:03;;;;;;;161.02;51.70;;;;;;;;;;8191937;28;20488;-70
2021/01/28 10:01:06;;;;;;;137.63;43.78;;;;;;;;;;8191862;28;20539;-69
2021/01/28 10:05:14;;;;;;;94.53;31.83;;;;;;;;;;8191689;28;20482;-69
2021/01/28 10:09:18;;;;;;;135.07;42.83;;;;;;;;;;8189940;28;20385;-68
2021/01/28 10:13:22;;;;;;;81.05;27.95;;;;;;;;;;8191015;28;20354;-69
2021/01/28 10:17:25;;;;;;;83.57;31.63;;;;;;;;;;8191888;28;20376;-69
2021/01/28 10:21:28;;;;;;;92.88;34.05;;;;;;;;;;8189794;28;20487;-69
2021/01/28 10:25:31;;;;;;;47.67;18.42;;;;;;;;;;8191821;28;20412;-69
2021/01/28 10:29:38;;;;;;;54.40;19.58;;;;;;;;;;8190124;28;20385;-70
2021/01/28 10:33:41;;;;;;;35.58;15.50;;;;;;;;;;8191130;28;20080;-69
2021/01/28 10:37:45;;;;;;;61.47;21.02;;;;;;;;;;8193088;28;20465;-69
2021/01/28 10:41:49;;;;;;;61.00;23.35;;;;;;;;;;8197600;28;20492;-70
2021/01/28 10:45:54;;;;;;;59.50;25.33;;;;;;;;;;8196032;28;20397;-69
2021/01/28 10:49:57;;;;;;;78.00;27.60;;;;;;;;;;8196136;28;20361;-70
2021/01/28 10:54:00;;;;;;;84.53;30.13;;;;;;;;;;8196699;28;20384;-69
2021/01/28 10:58:04;;;;;;;83.97;32.88;;;;;;;;;;8195398;28;20038;-70
2021/01/28 11:02:07;;;;;;;72.72;29.08;;;;;;;;;;8196527;28;20410;-70
2021/01/28 11:06:11;;;;;;;61.63;24.10;;;;;;;;;;8196959;28;20452;-69
2021/01/28 11:10:15;;;;;;;45.88;18.45;;;;;;;;;;8196513;28;20368;-71
2021/01/28 11:14:31;;;;;;;82.65;28.35;;;;;;;;;;8195807;28;20385;-69
2021/01/28 11:18:34;;;;;;;63.45;21.73;;;;;;;;;;8196433;28;20469;-71
2021/01/28 11:22:41;;;;;;;34.97;15.43;;;;;;;;;;8196682;28;20416;-71
2021/01/28 11:26:44;;;;;;;52.47;19.65;;;;;;;;;;8196529;28;20481;-71
2021/01/28 11:30:48;;;;;;;30.35;13.02;;;;;;;;;;8194369;28;20072;-72
2021/01/28 11:34:51;;;;;;;44.85;18.95;;;;;;;;;;8196048;28;20477;-72
2021/01/28 11:38:54;;;;;;;43.47;16.40;;;;;;;;;;8195691;28;20465;-72
2021/01/28 11:43:04;;;;;;;42.25;18.38;;;;;;;;;;8192954;28;20460;-72
2021/01/28 11:47:10;;;;;;;37.97;18.50;;;;;;;;;;8193912;28;20377;-72
2021/01/28 11:51:14;;;;;;;52.40;22.40;;;;;;;;;;8194539;28;20046;-72
2021/01/28 11:55:34;;;;;;;35.85;16.30;;;;;;;;;;8195404;28;20416;-72
2021/01/28 11:59:38;;;;;;;27.58;13.02;;;;;;;;;;8193268;28;20416;-72
2021/01/28 12:03:43;;;;;;;35.25;15.98;;;;;;;;;;8193756;28;20457;-72
2021/01/28 12:07:47;;;;;;;46.67;19.85;;;;;;;;;;8194888;28;20054;-72
2021/01/28 12:11:50;;;;;;;28.70;12.23;;;;;;;;;;8194723;28;20366;-73
2021/01/28 12:15:53;;;;;;;22.92;10.43;;;;;;;;;;8177473;28;20492;-72
2021/01/28 12:19:56;;;;;;;31.20;13.68;;;;;;;;;;8194139;28;20484;-73
2021/01/28 12:23:59;;;;;;;32.83;15.15;;;;;;;;;;8194773;28;20512;-73
2021/01/28 12:28:02;;;;;;;27.52;14.32;;;;;;;;;;8193341;28;20080;-73
2021/01/28 12:32:06;;;;;;;26.85;11.60;;;;;;;;;;8194052;28;20385;-73
2021/01/28 12:36:11;;;;;;;42.63;18.38;;;;;;;;;;8193898;28;20465;-72
2021/01/28 12:40:16;;;;;;;50.05;18.17;;;;;;;;;;8191777;28;20061;-79
2021/01/28 12:44:20;;;;;;;53.67;21.00;;;;;;;;;;8193896;28;20491;-74
2021/01/28 12:48:23;;;;;;;53.65;21.92;;;;;;;;;;8193149;28;20421;-72
2021/01/28 12:52:28;;;;;;;48.83;19.85;;;;;;;;;;8193480;28;20075;-74
2021/01/28 12:56:31;;;;;;;129.23;40.35;;;;;;;;;;8193632;28;20409;-73
2021/01/28 13:00:34;;;;;;;42.45;19.45;;;;;;;;;;8193002;28;20385;-72
2021/01/28 13:04:38;;;;;;;30.52;14.07;;;;;;;;;;8193210;28;20487;-73
2021/01/28 13:08:42;;;;;;;37.30;14.48;;;;;;;;;;8193133;28;20386;-73
2021/01/28 13:12:45;;;;;;;39.60;15.90;;;;;;;;;;8192548;28;20409;-72
2021/01/28 13:16:48;;;;;;;57.53;22.30;;;;;;;;;;8192893;28;20403;-74
2021/01/28 13:20:52;;;;;;;33.05;12.90;;;;;;;;;;8191479;28;20497;-75
2021/01/28 13:24:55;;;;;;;45.92;17.52;;;;;;;;;;8192544;28;20380;-73
2021/01/28 13:28:58;;;;;;;49.10;19.55;;;;;;;;;;8192035;28;20380;-74
2021/01/28 13:33:02;;;;;;;67.50;27.60;;;;;;;;;;8191200;28;20480;-73
2021/01/28 13:37:06;;;;;;;73.65;28.83;;;;;;;;;;8192515;28;20377;-75
2021/01/28 13:41:10;;;;;;;101.32;35.25;;;;;;;;;;8191612;28;20050;-73
2021/01/28 13:45:16;;;;;;;41.20;18.50;;;;;;;;;;8192278;28;20384;-73
2021/01/28 13:49:20;;;;;;;52.95;19.67;;;;;;;;;;8129354;28;20543;-74
2021/01/28 13:53:23;;;;;;;53.28;22.63;;;;;;;;;;8127452;28;20138;-74
2021/01/28 13:57:26;;;;;;;43.45;20.15;;;;;;;;;;8126368;28;20363;-76
2021/01/28 14:01:30;;;;;;;44.53;21.30;;;;;;;;;;8125783;28;20490;-74
2021/01/28 14:05:33;;;;;;;116.35;38.28;;;;;;;;;;8126881;28;20374;-75
2021/01/28 14:09:36;;;;;;;163.85;57.60;;;;;;;;;;8127707;28;20074;-74
2021/01/28 14:13:43;;;;;;;116.65;44.38;;;;;;;;;;8129674;28;20500;-74
2021/01/28 14:17:47;;;;;;;97.18;43.22;;;;;;;;;;8116405;28;20381;-75
2021/01/28 14:21:51;;;;;;;777.40;267.05;;;;;;;;;;8132943;28;20508;-74
2021/01/28 14:25:54;;;;;;;686.35;241.02;;;;;;;;;;8133715;28;20466;-74
2021/01/28 14:29:58;;;;;;;686.35;266.90;;;;;;;;;;8134052;28;20385;-74
2021/01/28 14:34:02;;;;;;;163.10;49.28;;;;;;;;;;8163551;28;20369;-74
2021/01/28 14:38:13;;;;;;;76.70;30.02;;;;;;;;;;8165320;28;20050;-75
2021/01/28 14:42:17;;;;;;;46.70;19.48;;;;;;;;;;8164066;28;20416;-75
2021/01/28 14:46:20;;;;;;;47.35;20.08;;;;;;;;;;8163861;28;20062;-74
2021/01/28 14:50:24;;;;;;;48.25;23.55;;;;;;;;;;8165162;28;20366;-73
2021/01/28 14:54:27;;;;;;;101.13;39.97;;;;;;;;;;8160434;28;20046;-76
2021/01/28 14:58:31;;;;;;;93.00;34.05;;;;;;;;;;8163248;28;20381;-74
2021/01/28 15:02:34;;;;;;;65.65;26.58;;;;;;;;;;8163022;28;20077;-74
2021/01/28 15:06:38;;;;;;;54.30;19.95;;;;;;;;;;8162967;28;20365;-74
2021/01/28 15:10:41;;;;;;;54.13;17.90;;;;;;;;;;8121985;28;20479;-74
2021/01/28 15:14:45;;;;;;;60.70;22.38;;;;;;;;;;8193944;28;20510;-74
2021/01/28 15:18:48;;;;;;;51.05;18.48;;;;;;;;;;8194703;28;20377;-73
2021/01/28 15:22:52;;;;;;;45.38;15.57;;;;;;;;;;8194723;28;20542;-73
2021/01/28 15:26:56;;;;;;;44.05;15.02;;;;;;;;;;8195525;28;20057;-74
2021/01/28 15:30:59;;;;;;;35.85;15.32;;;;;;;;;;8195207;28;20649;-73
2021/01/28 15:35:04;;;;;;;61.97;21.08;;;;;;;;;;8192411;28;20381;-73
2021/01/28 15:39:08;;;;;;;53.17;19.75;;;;;;;;;;8193501;28;20046;-73
2021/01/28 15:43:11;;;;;;;55.60;20.08;;;;;;;;;;8194183;28;20046;-73
2021/01/28 15:47:15;;;;;;;51.95;19.70;;;;;;;;;;8194152;28;20457;-74
2021/01/28 15:51:18;;;;;;;64.50;22.38;;;;;;;;;;8194766;28;20383;-73
2021/01/28 15:55:22;;;;;;;85.78;32.50;;;;;;;;;;8193283;28;20483;-74
2021/01/28 15:59:26;;;;;;;168.05;62.15;;;;;;;;;;8194233;28;20078;-73
2021/01/28 16:03:29;;;;;;;76.22;31.38;;;;;;;;;;8192383;28;20077;-73
2021/01/28 16:07:33;;;;;;;82.00;32.58;;;;;;;;;;8194238;28;20391;-74
2021/01/28 16:11:36;;;;;;;57.45;23.95;;;;;;;;;;8192853;28;20362;-74
2021/01/28 16:15:39;;;;;;;59.75;24.75;;;;;;;;;;8189570;28;20473;-73
2021/01/28 16:19:42;;;;;;;86.93;31.15;;;;;;;;;;8193584;28;20476;-73
2021/01/28 16:23:45;;;;;;;83.78;40.53;;;;;;;;;;8191768;28;20457;-73
2021/01/28 16:27:50;;;;;;;53.88;21.13;;;;;;;;;;8193489;28;20381;-74
2021/01/28 16:31:53;;;;;;;64.00;23.95;;;;;;;;;;8191876;28;20054;-73
2021/01/28 16:35:57;;;;;;;53.78;22.52;;;;;;;;;;8191522;28;20408;-74
2021/01/28 16:40:00;;;;;;;71.55;28.92;;;;;;;;;;8193594;28;20091;-75
2021/01/28 16:44:04;;;;;;;63.35;27.85;;;;;;;;;;8194052;28;20049;-73
2021/01/28 16:48:09;;;;;;;56.95;22.75;;;;;;;;;;8176764;28;20380;-73
2021/01/28 16:52:14;;;;;;;63.85;26.80;;;;;;;;;;8192252;28;20476;-74
2021/01/28 16:56:17;;;;;;;60.47;26.45;;;;;;;;;;8191675;28;20440;-73
2021/01/28 17:00:24;;;;;;;64.82;27.40;;;;;;;;;;8191861;28;20498;-74
2021/01/28 17:04:28;;;;;;;59.60;26.10;;;;;;;;;;8191801;28;20376;-73
2021/01/28 17:08:31;;;;;;;75.40;31.95;;;;;;;;;;8190788;28;20358;-74
2021/01/28 17:12:35;;;;;;;62.63;27.95;;;;;;;;;;8190667;28;20358;-74
2021/01/28 17:16:44;;;;;;;71.97;30.15;;;;;;;;;;8191137;28;20054;-75
2021/01/28 17:20:48;;;;;;;79.30;36.15;;;;;;;;;;8191272;28;20361;-74
2021/01/28 17:24:58;;;;;;;99.38;45.53;;;;;;;;;;8220211;28;20365;-74
2021/01/28 17:29:02;;;;;;;85.90;35.65;;;;;;;;;;8220619;28;20071;-74
2021/01/28 17:33:07;;;;;;;109.50;43.85;;;;;;;;;;8221152;28;20427;-74
2021/01/28 17:37:14;;;;;;;96.97;41.08;;;;;;;;;;8220602;28;20483;-74
2021/01/28 17:41:18;;;;;;;69.63;31.90;;;;;;;;;;8220007;28;20472;-74
2021/01/28 17:45:26;;;;;;;74.97;28.67;;;;;;;;;;8204047;28;20502;-74
2021/01/28 17:49:29;;;;;;;54.70;24.95;;;;;;;;;;8218851;28;20418;-74
2021/01/28 17:53:33;;;;;;;84.63;35.72;;;;;;;;;;8220306;28;20380;-75
2021/01/28 17:57:37;;;;;;;89.50;40.38;;;;;;;;;;8219475;28;20049;-74
2021/01/28 18:01:57;;;;;;;93.53;39.97;;;;;;;;;;8206635;28;20485;-75
2021/01/28 18:06:01;;;;;;;65.30;31.52;;;;;;;;;;8191451;28;20506;-74
2021/01/28 18:10:06;;;;;;;63.55;29.73;;;;;;;;;;8190873;28;20384;-75
2021/01/28 18:14:12;;;;;;;1207.70;425.45;;;;;;;;;;8190321;28;20507;-75
2021/01/28 18:18:16;;;;;;;1999.90;775.22;;;;;;;;;;8191517;28;20489;-74
2021/01/28 18:22:25;;;;;;;1699.22;539.58;;;;;;;;;;8190033;28;20484;-74
2021/01/28 18:26:29;;;;;;;1999.90;499.88;;;;;;;;;;8191696;28;20484;-74
2021/01/28 18:30:33;;;;;;;1041.22;220.52;;;;;;;;;;8191880;28;20477;-75
2021/01/28 18:34:38;;;;;;;540.95;104.22;;;;;;;;;;8189761;28;20477;-75
2021/01/28 18:38:41;;;;;;;656.38;169.65;;;;;;;;;;8192832;28;20450;-75
2021/01/28 18:42:45;;;;;;;1999.90;586.40;;;;;;;;;;8191002;28;20385;-74
2021/01/28 18:46:48;;;;;;;1925.75;395.70;;;;;;;;;;8191110;28;20084;-75
2021/01/28 18:50:53;;;;;;;581.90;104.85;;;;;;;;;;8189838;28;20488;-73
2021/01/28 18:54:56;;;;;;;472.63;80.05;;;;;;;;;;8189879;28;20072;-73
2021/01/28 18:58:59;;;;;;;429.10;78.72;;;;;;;;;;8193400;28;20378;-74
2021/01/28 19:03:04;;;;;;;348.95;69.30;;;;;;;;;;8196957;28;20112;-75
2021/01/28 19:07:07;;;;;;;1657.45;457.10;;;;;;;;;;8196491;28;20457;-74
2021/01/28 19:11:10;;;;;;;741.78;154.73;;;;;;;;;;8196873;28;20050;-75
2021/01/28 19:15:13;;;;;;;819.35;157.85;;;;;;;;;;8195996;28;20481;-76
2021/01/28 19:19:18;;;;;;;516.38;129.45;;;;;;;;;;8194946;28;20481;-75
2021/01/28 19:23:22;;;;;;;348.83;77.88;;;;;;;;;;8178878;28;20380;-75
2021/01/28 19:27:25;;;;;;;274.48;56.70;;;;;;;;;;8195946;28;20080;-75
2021/01/28 19:31:37;;;;;;;221.43;46.47;;;;;;;;;;8195435;28;20473;-75
2021/01/28 19:35:44;;;;;;;273.30;56.80;;;;;;;;;;8195233;28;20494;-76
2021/01/28 19:39:48;;;;;;;163.10;34.45;;;;;;;;;;8178176;28;20412;-76
2021/01/28 19:43:58;;;;;;;164.63;35.38;;;;;;;;;;8177103;28;20484;-76
2021/01/28 19:48:02;;;;;;;163.15;35.90;;;;;;;;;;8195428;28;20539;-77
2021/01/28 19:52:07;;;;;;;271.45;54.53;;;;;;;;;;8178673;28;20068;-76
2021/01/28 19:56:11;;;;;;;194.90;44.80;;;;;;;;;;8193263;28;20068;-76
2021/01/28 20:00:27;;;;;;;219.80;41.88;;;;;;;;;;8194630;28;20085;-77
2021/01/28 20:04:31;;;;;;;205.40;50.72;;;;;;;;;;8192956;28;20503;-76
2021/01/28 20:08:35;;;;;;;245.82;54.95;;;;;;;;;;8194841;28;20050;-76
2021/01/28 20:12:39;;;;;;;227.93;62.10;;;;;;;;;;8187692;28;20477;-75
2021/01/28 20:16:42;;;;;;;229.95;56.67;;;;;;;;;;8190759;28;20420;-76
2021/01/28 20:20:53;;;;;;;170.82;45.45;;;;;;;;;;8173212;28;20353;-76
2021/01/28 20:24:57;;;;;;;227.68;57.70;;;;;;;;;;8174159;28;20112;-76
2021/01/28 20:29:00;;;;;;;157.02;46.25;;;;;;;;;;8189894;28;20076;-75
2021/01/28 20:33:06;;;;;;;175.13;45.00;;;;;;;;;;8189709;28;20610;-75
2021/01/28 20:37:09;;;;;;;256.75;68.25;;;;;;;;;;8173642;28;20400;-76
2021/01/28 20:41:13;;;;;;;211.75;65.70;;;;;;;;;;8190483;28;20388;-75
2021/01/28 20:45:22;;;;;;;245.90;67.20;;;;;;;;;;8191948;28;20068;-75
2021/01/28 20:49:26;;;;;;;137.32;44.63;;;;;;;;;;8193203;28;20469;-75
2021/01/28 20:53:29;;;;;;;146.25;43.60;;;;;;;;;;8194300;28;20365;-76
2021/01/28 20:57:33;;;;;;;184.75;48.60;;;;;;;;;;8192770;28;20392;-74
2021/01/28 21:01:36;;;;;;;155.20;45.33;;;;;;;;;;8193659;28;20057;-74
2021/01/28 21:05:40;;;;;;;154.70;49.03;;;;;;;;;;8192011;28;20465;-74
2021/01/28 21:09:43;;;;;;;150.23;41.42;;;;;;;;;;8192612;28;20415;-74
2021/01/28 21:13:47;;;;;;;148.35;42.42;;;;;;;;;;8192542;28;20477;-74
2021/01/28 21:17:52;;;;;;;212.07;57.97;;;;;;;;;;8191073;28;20389;-74
2021/01/28 21:21:55;;;;;;;89.28;33.70;;;;;;;;;;8191120;28;20499;-74
2021/01/28 21:25:58;;;;;;;156.00;46.35;;;;;;;;;;8192453;28;20053;-73
2021/01/28 21:30:07;;;;;;;121.03;37.42;;;;;;;;;;8175976;28;20485;-73
2021/01/28 21:34:10;;;;;;;223.25;57.90;;;;;;;;;;8194333;28;20400;-74
2021/01/28 21:38:13;;;;;;;130.05;42.60;;;;;;;;;;8191058;28;20045;-73
2021/01/28 21:42:17;;;;;;;132.00;42.67;;;;;;;;;;8190430;28;20487;-73
2021/01/28 21:46:21;;;;;;;89.68;35.70;;;;;;;;;;8192091;28;20373;-73
2021/01/28 21:50:32;;;;;;;90.32;32.97;;;;;;;;;;8191714;28;20076;-74
2021/01/28 21:54:36;;;;;;;146.85;43.80;;;;;;;;;;8192013;28;20391;-73
2021/01/28 21:58:39;;;;;;;83.60;32.25;;;;;;;;;;8174358;28;20373;-73
2021/01/28 22:02:42;;;;;;;58.55;22.60;;;;;;;;;;8191798;28;20481;-73
2021/01/28 22:06:46;;;;;;;45.40;20.17;;;;;;;;;;8191709;28;20487;-73
2021/01/28 22:10:49;;;;;;;45.28;19.63;;;;;;;;;;8191443;28;20535;-73
2021/01/28 22:14:53;;;;;;;44.15;17.65;;;;;;;;;;8189925;28;20401;-71
2021/01/28 22:18:56;;;;;;;35.67;16.02;;;;;;;;;;8189764;28;20408;-71
2021/01/28 22:23:00;;;;;;;63.97;21.30;;;;;;;;;;8189528;28;20384;-71
2021/01/28 22:27:05;;;;;;;42.35;18.23;;;;;;;;;;8190142;28;20376;-71
2021/01/28 22:31:08;;;;;;;42.75;17.67;;;;;;;;;;8189859;28;20417;-71
2021/01/28 22:35:16;;;;;;;40.45;19.23;;;;;;;;;;8194125;28;20392;-70
2021/01/28 22:39:19;;;;;;;49.80;20.17;;;;;;;;;;8195944;28;20377;-70
2021/01/28 22:43:27;;;;;;;43.45;19.08;;;;;;;;;;8196074;28;20118;-71
2021/01/28 22:47:32;;;;;;;42.83;16.70;;;;;;;;;;8197179;28;20372;-72
2021/01/28 22:51:36;;;;;;;50.80;20.17;;;;;;;;;;8179803;28;20045;-72
2021/01/28 22:55:39;;;;;;;40.10;17.83;;;;;;;;;;8197062;28;20380;-72
2021/01/28 22:59:42;;;;;;;47.95;19.38;;;;;;;;;;8195328;28;20465;-72
2021/01/28 23:03:45;;;;;;;38.92;16.98;;;;;;;;;;8195414;28;20053;-72
2021/01/28 23:07:50;;;;;;;47.92;18.67;;;;;;;;;;8195466;28;20468;-71
2021/01/28 23:11:53;;;;;;;44.55;17.17;;;;;;;;;;8195096;28;20053;-71
2021/01/28 23:15:58;;;;;;;47.85;18.83;;;;;;;;;;8179349;28;20495;-72
2021/01/28 23:20:02;;;;;;;43.50;17.38;;;;;;;;;;8194481;28;20476;-72
2021/01/28 23:24:09;;;;;;;36.63;15.65;;;;;;;;;;8195195;28;20377;-72
2021/01/28 23:28:12;;;;;;;37.83;16.85;;;;;;;;;;8194796;28;20389;-71
2021/01/28 23:32:15;;;;;;;37.08;15.82;;;;;;;;;;8194375;28;20484;-71
2021/01/28 23:36:19;;;;;;;41.15;17.65;;;;;;;;;;8196080;28;20404;-72
2021/01/28 23:40:22;;;;;;;35.20;16.75;;;;;;;;;;8195885;28;20487;-72
2021/01/28 23:44:25;;;;;;;51.15;18.83;;;;;;;;;;8194130;28;20496;-73
2021/01/28 23:48:30;;;;;;;37.65;17.67;;;;;;;;;;8195994;28;20465;-72
2021/01/28 23:52:34;;;;;;;42.05;17.88;;;;;;;;;;8193540;28;20362;-72
2021/01/28 23:56:37;;;;;;;45.63;18.20;;;;;;;;;;8193325;28;20488;-72
